sensor_id;sensor_type;location;lat;lon;timestamp;P1;durP1;ratioP1;P2;durP2;ratioP2
42338;SDS011;27993;45.392;10.918;2022-10-10T00:02:16;8.40;;;3.28;;
42338;SDS011;27993;45.392;10.918;2022-10-10T00:04:47;7.07;;;4.35;;
42338;SDS011;27993;45.392;10.918;2022-10-10T00:07:18;14.05;;;4.03;;
42338;SDS011;27993;45.392;10.918;2022-10-10T00:09:49;8.77;;;3.40;;
42338;SDS011;27993;45.392;10.918;2022-10-10T00:12:20;5.97;;;3.80;;
42338;SDS011;27993;45.392;10.918;2022-10-10T00:14:50;3.95;;;3.00;;
42338;SDS011;27993;45.392;10.918;2022-10-10T00:17:21;11.05;;;3.90;;
42338;SDS011;27993;45.392;10.918;2022-10-10T00:19:52;12.77;;;3.70;;
42338;SDS011;27993;45.392;10.918;2022-10-10T00:22:22;8.00;;;3.50;;
42338;SDS011;27993;45.392;10.918;2022-10-10T00:24:53;7.37;;;3.37;;
42338;SDS011;27993;45.392;10.918;2022-10-10T00:27:23;5.12;;;3.05;;
42338;SDS011;27993;45.392;10.918;2022-10-10T00:29:54;9.30;;;3.65;;
42338;SDS011;27993;45.392;10.918;2022-10-10T00:32:25;5.55;;;3.55;;
42338;SDS011;27993;45.392;10.918;2022-10-10T00:34:56;5.50;;;2.65;;
42338;SDS011;27993;45.392;10.918;2022-10-10T00:37:29;7.20;;;3.53;;
42338;SDS011;27993;45.392;10.918;2022-10-10T00:40:00;5.25;;;3.37;;
42338;SDS011;27993;45.392;10.918;2022-10-10T00:42:30;8.07;;;3.20;;
42338;SDS011;27993;45.392;10.918;2022-10-10T00:47:59;5.85;;;2.97;;
42338;SDS011;27993;45.392;10.918;2022-10-10T00:50:30;5.45;;;2.90;;
42338;SDS011;27993;45.392;10.918;2022-10-10T00:53:06;6.85;;;2.78;;
42338;SDS011;27993;45.392;10.918;2022-10-10T00:55:42;8.38;;;2.78;;
42338;SDS011;27993;45.392;10.918;2022-10-10T00:58:14;4.12;;;3.10;;
42338;SDS011;27993;45.392;10.918;2022-10-10T01:00:46;12.13;;;3.15;;
42338;SDS011;27993;45.392;10.918;2022-10-10T01:03:17;7.72;;;3.03;;
42338;SDS011;27993;45.392;10.918;2022-10-10T01:05:47;8.88;;;3.15;;
42338;SDS011;27993;45.392;10.918;2022-10-10T01:08:19;10.98;;;3.72;;
42338;SDS011;27993;45.392;10.918;2022-10-10T01:21:45;6.43;;;3.13;;
42338;SDS011;27993;45.392;10.918;2022-10-10T01:30:20;7.00;;;3.20;;
42338;SDS011;27993;45.392;10.918;2022-10-10T01:32:54;11.52;;;4.45;;
42338;SDS011;27993;45.392;10.918;2022-10-10T01:41:14;4.47;;;3.12;;
42338;SDS011;27993;45.392;10.918;2022-10-10T01:43:54;8.70;;;3.25;;
42338;SDS011;27993;45.392;10.918;2022-10-10T01:46:25;8.70;;;3.47;;
42338;SDS011;27993;45.392;10.918;2022-10-10T01:48:56;11.10;;;3.55;;
42338;SDS011;27993;45.392;10.918;2022-10-10T01:54:12;8.85;;;3.75;;
42338;SDS011;27993;45.392;10.918;2022-10-10T02:00:09;9.48;;;3.37;;
42338;SDS011;27993;45.392;10.918;2022-10-10T02:03:02;15.82;;;3.90;;
42338;SDS011;27993;45.392;10.918;2022-10-10T02:05:51;9.23;;;3.70;;
42338;SDS011;27993;45.392;10.918;2022-10-10T02:08:55;9.15;;;3.53;;
42338;SDS011;27993;45.392;10.918;2022-10-10T02:11:39;10.38;;;3.62;;
42338;SDS011;27993;45.392;10.918;2022-10-10T02:14:12;6.55;;;3.33;;
42338;SDS011;27993;45.392;10.918;2022-10-10T02:16:46;12.48;;;3.55;;
42338;SDS011;27993;45.392;10.918;2022-10-10T02:19:21;5.07;;;2.95;;
42338;SDS011;27993;45.392;10.918;2022-10-10T02:21:56;6.05;;;3.70;;
42338;SDS011;27993;45.392;10.918;2022-10-10T02:24:29;9.85;;;3.78;;
42338;SDS011;27993;45.392;10.918;2022-10-10T02:27:02;3.90;;;2.72;;
42338;SDS011;27993;45.392;10.918;2022-10-10T02:29:38;7.32;;;3.30;;
42338;SDS011;27993;45.392;10.918;2022-10-10T02:34:53;5.37;;;3.00;;
42338;SDS011;27993;45.392;10.918;2022-10-10T02:37:26;6.57;;;3.05;;
42338;SDS011;27993;45.392;10.918;2022-10-10T02:39:59;11.50;;;4.05;;
42338;SDS011;27993;45.392;10.918;2022-10-10T02:42:33;7.00;;;3.87;;
42338;SDS011;27993;45.392;10.918;2022-10-10T02:45:06;5.95;;;3.08;;
42338;SDS011;27993;45.392;10.918;2022-10-10T02:47:36;4.97;;;3.03;;
42338;SDS011;27993;45.392;10.918;2022-10-10T02:50:07;7.43;;;3.60;;
42338;SDS011;27993;45.392;10.918;2022-10-10T02:52:38;6.97;;;3.15;;
42338;SDS011;27993;45.392;10.918;2022-10-10T02:55:09;4.15;;;2.95;;
42338;SDS011;27993;45.392;10.918;2022-10-10T02:57:39;6.07;;;3.23;;
42338;SDS011;27993;45.392;10.918;2022-10-10T03:00:10;4.57;;;3.37;;
42338;SDS011;27993;45.392;10.918;2022-10-10T03:02:44;9.68;;;3.72;;
42338;SDS011;27993;45.392;10.918;2022-10-10T03:05:15;6.43;;;3.85;;
42338;SDS011;27993;45.392;10.918;2022-10-10T03:07:45;9.10;;;3.20;;
42338;SDS011;27993;45.392;10.918;2022-10-10T03:10:16;4.12;;;3.20;;
42338;SDS011;27993;45.392;10.918;2022-10-10T03:12:47;10.65;;;3.47;;
42338;SDS011;27993;45.392;10.918;2022-10-10T03:15:17;6.93;;;3.40;;
42338;SDS011;27993;45.392;10.918;2022-10-10T03:17:48;9.60;;;2.80;;
42338;SDS011;27993;45.392;10.918;2022-10-10T03:20:18;11.60;;;3.10;;
42338;SDS011;27993;45.392;10.918;2022-10-10T03:22:49;6.00;;;3.30;;
42338;SDS011;27993;45.392;10.918;2022-10-10T03:25:19;4.47;;;2.50;;
42338;SDS011;27993;45.392;10.918;2022-10-10T03:27:50;4.37;;;2.93;;
42338;SDS011;27993;45.392;10.918;2022-10-10T03:30:21;9.07;;;2.95;;
42338;SDS011;27993;45.392;10.918;2022-10-10T03:32:51;6.90;;;4.03;;
42338;SDS011;27993;45.392;10.918;2022-10-10T03:35:22;9.15;;;4.57;;
42338;SDS011;27993;45.392;10.918;2022-10-10T03:37:56;13.93;;;6.07;;
42338;SDS011;27993;45.392;10.918;2022-10-10T03:40:27;11.57;;;4.80;;
42338;SDS011;27993;45.392;10.918;2022-10-10T03:45:29;5.17;;;3.33;;
42338;SDS011;27993;45.392;10.918;2022-10-10T03:48:00;6.77;;;3.13;;
42338;SDS011;27993;45.392;10.918;2022-10-10T03:50:30;7.27;;;3.40;;
42338;SDS011;27993;45.392;10.918;2022-10-10T03:53:01;6.80;;;4.03;;
42338;SDS011;27993;45.392;10.918;2022-10-10T03:55:31;4.83;;;2.73;;
42338;SDS011;27993;45.392;10.918;2022-10-10T03:58:02;11.52;;;3.40;;
42338;SDS011;27993;45.392;10.918;2022-10-10T04:00:33;6.90;;;2.80;;
42338;SDS011;27993;45.392;10.918;2022-10-10T04:03:04;5.87;;;3.12;;
42338;SDS011;27993;45.392;10.918;2022-10-10T04:05:36;8.05;;;3.20;;
42338;SDS011;27993;45.392;10.918;2022-10-10T04:08:08;8.63;;;2.90;;
42338;SDS011;27993;45.392;10.918;2022-10-10T04:10:38;4.93;;;3.42;;
42338;SDS011;27993;45.392;10.918;2022-10-10T04:13:09;7.40;;;4.07;;
42338;SDS011;27993;45.392;10.918;2022-10-10T04:15:40;9.30;;;4.77;;
42338;SDS011;27993;45.392;10.918;2022-10-10T04:18:10;15.97;;;4.83;;
42338;SDS011;27993;45.392;10.918;2022-10-10T04:20:41;10.00;;;3.58;;
42338;SDS011;27993;45.392;10.918;2022-10-10T04:23:11;13.07;;;3.90;;
42338;SDS011;27993;45.392;10.918;2022-10-10T04:25:42;9.83;;;4.70;;
42338;SDS011;27993;45.392;10.918;2022-10-10T04:28:13;13.40;;;3.75;;
42338;SDS011;27993;45.392;10.918;2022-10-10T04:30:45;7.30;;;3.00;;
42338;SDS011;27993;45.392;10.918;2022-10-10T04:33:18;4.55;;;2.75;;
42338;SDS011;27993;45.392;10.918;2022-10-10T04:35:48;5.53;;;3.08;;
42338;SDS011;27993;45.392;10.918;2022-10-10T04:38:19;8.02;;;3.17;;
42338;SDS011;27993;45.392;10.918;2022-10-10T04:40:51;12.93;;;3.30;;
42338;SDS011;27993;45.392;10.918;2022-10-10T04:43:23;9.60;;;3.50;;
42338;SDS011;27993;45.392;10.918;2022-10-10T04:45:54;7.27;;;3.60;;
42338;SDS011;27993;45.392;10.918;2022-10-10T04:48:26;5.12;;;3.00;;
42338;SDS011;27993;45.392;10.918;2022-10-10T04:50:57;8.43;;;2.92;;
42338;SDS011;27993;45.392;10.918;2022-10-10T04:55:59;9.17;;;3.30;;
42338;SDS011;27993;45.392;10.918;2022-10-10T04:58:29;6.50;;;3.30;;
42338;SDS011;27993;45.392;10.918;2022-10-10T05:01:00;8.68;;;3.80;;
42338;SDS011;27993;45.392;10.918;2022-10-10T05:03:31;5.87;;;3.43;;
42338;SDS011;27993;45.392;10.918;2022-10-10T05:06:01;9.35;;;3.62;;
42338;SDS011;27993;45.392;10.918;2022-10-10T05:08:32;12.10;;;4.23;;
42338;SDS011;27993;45.392;10.918;2022-10-10T05:11:03;12.68;;;4.12;;
42338;SDS011;27993;45.392;10.918;2022-10-10T05:13:34;8.25;;;4.37;;
42338;SDS011;27993;45.392;10.918;2022-10-10T05:16:04;9.33;;;4.13;;
42338;SDS011;27993;45.392;10.918;2022-10-10T05:18:36;12.37;;;4.00;;
42338;SDS011;27993;45.392;10.918;2022-10-10T05:21:07;10.63;;;4.55;;
42338;SDS011;27993;45.392;10.918;2022-10-10T05:23:40;28.48;;;4.47;;
42338;SDS011;27993;45.392;10.918;2022-10-10T05:26:11;22.65;;;5.60;;
42338;SDS011;27993;45.392;10.918;2022-10-10T05:28:41;22.77;;;4.03;;
42338;SDS011;27993;45.392;10.918;2022-10-10T05:31:12;11.43;;;4.30;;
42338;SDS011;27993;45.392;10.918;2022-10-10T05:33:43;13.00;;;4.10;;
42338;SDS011;27993;45.392;10.918;2022-10-10T05:36:13;11.53;;;3.50;;
42338;SDS011;27993;45.392;10.918;2022-10-10T05:38:47;15.38;;;3.78;;
42338;SDS011;27993;45.392;10.918;2022-10-10T05:41:18;23.62;;;4.03;;
42338;SDS011;27993;45.392;10.918;2022-10-10T05:43:51;7.35;;;3.60;;
42338;SDS011;27993;45.392;10.918;2022-10-10T05:46:22;10.13;;;3.40;;
42338;SDS011;27993;45.392;10.918;2022-10-10T05:48:53;6.45;;;3.35;;
42338;SDS011;27993;45.392;10.918;2022-10-10T05:51:24;17.52;;;3.47;;
42338;SDS011;27993;45.392;10.918;2022-10-10T05:53:55;9.15;;;3.17;;
42338;SDS011;27993;45.392;10.918;2022-10-10T05:56:26;7.20;;;3.60;;
42338;SDS011;27993;45.392;10.918;2022-10-10T05:58:57;16.05;;;3.87;;
42338;SDS011;27993;45.392;10.918;2022-10-10T06:01:27;8.07;;;3.93;;
42338;SDS011;27993;45.392;10.918;2022-10-10T06:03:58;5.70;;;3.73;;
42338;SDS011;27993;45.392;10.918;2022-10-10T06:06:28;12.53;;;4.20;;
42338;SDS011;27993;45.392;10.918;2022-10-10T06:08:59;8.77;;;3.43;;
42338;SDS011;27993;45.392;10.918;2022-10-10T06:11:29;5.82;;;3.47;;
42338;SDS011;27993;45.392;10.918;2022-10-10T06:14:00;6.95;;;3.55;;
42338;SDS011;27993;45.392;10.918;2022-10-10T06:16:34;17.55;;;4.20;;
42338;SDS011;27993;45.392;10.918;2022-10-10T06:19:05;10.82;;;4.12;;
42338;SDS011;27993;45.392;10.918;2022-10-10T06:21:36;8.85;;;4.65;;
42338;SDS011;27993;45.392;10.918;2022-10-10T06:24:07;5.25;;;3.80;;
42338;SDS011;27993;45.392;10.918;2022-10-10T06:26:39;7.35;;;4.05;;
42338;SDS011;27993;45.392;10.918;2022-10-10T06:29:10;7.87;;;3.95;;
42338;SDS011;27993;45.392;10.918;2022-10-10T06:31:40;9.35;;;4.78;;
42338;SDS011;27993;45.392;10.918;2022-10-10T06:34:11;8.07;;;5.03;;
42338;SDS011;27993;45.392;10.918;2022-10-10T06:36:42;11.10;;;4.68;;
42338;SDS011;27993;45.392;10.918;2022-10-10T06:39:12;8.00;;;4.30;;
42338;SDS011;27993;45.392;10.918;2022-10-10T06:41:43;11.80;;;4.43;;
42338;SDS011;27993;45.392;10.918;2022-10-10T06:44:15;10.98;;;3.60;;
42338;SDS011;27993;45.392;10.918;2022-10-10T06:46:47;14.68;;;4.25;;
42338;SDS011;27993;45.392;10.918;2022-10-10T06:49:17;19.63;;;4.30;;
42338;SDS011;27993;45.392;10.918;2022-10-10T06:51:48;8.33;;;4.00;;
42338;SDS011;27993;45.392;10.918;2022-10-10T06:54:18;7.60;;;3.30;;
42338;SDS011;27993;45.392;10.918;2022-10-10T06:56:49;5.77;;;3.40;;
42338;SDS011;27993;45.392;10.918;2022-10-10T06:59:19;8.20;;;4.03;;
42338;SDS011;27993;45.392;10.918;2022-10-10T07:01:50;6.47;;;4.12;;
42338;SDS011;27993;45.392;10.918;2022-10-10T07:04:21;7.20;;;4.13;;
42338;SDS011;27993;45.392;10.918;2022-10-10T07:06:51;7.27;;;4.13;;
42338;SDS011;27993;45.392;10.918;2022-10-10T07:09:22;10.63;;;4.10;;
42338;SDS011;27993;45.392;10.918;2022-10-10T07:11:52;9.93;;;4.33;;
42338;SDS011;27993;45.392;10.918;2022-10-10T07:14:23;10.98;;;4.20;;
42338;SDS011;27993;45.392;10.918;2022-10-10T07:16:53;12.50;;;3.87;;
42338;SDS011;27993;45.392;10.918;2022-10-10T07:19:24;18.23;;;5.10;;
42338;SDS011;27993;45.392;10.918;2022-10-10T07:21:55;15.63;;;3.83;;
42338;SDS011;27993;45.392;10.918;2022-10-10T07:24:25;17.67;;;4.50;;
42338;SDS011;27993;45.392;10.918;2022-10-10T07:26:56;15.67;;;4.53;;
42338;SDS011;27993;45.392;10.918;2022-10-10T07:29:26;12.23;;;3.77;;
42338;SDS011;27993;45.392;10.918;2022-10-10T07:31:59;13.15;;;5.10;;
42338;SDS011;27993;45.392;10.918;2022-10-10T07:34:29;39.60;;;7.80;;
42338;SDS011;27993;45.392;10.918;2022-10-10T07:37:00;34.70;;;6.55;;
42338;SDS011;27993;45.392;10.918;2022-10-10T07:39:31;24.40;;;5.78;;
42338;SDS011;27993;45.392;10.918;2022-10-10T07:42:01;14.85;;;5.15;;
42338;SDS011;27993;45.392;10.918;2022-10-10T07:44:32;16.30;;;5.12;;
42338;SDS011;27993;45.392;10.918;2022-10-10T07:47:03;13.90;;;4.40;;
42338;SDS011;27993;45.392;10.918;2022-10-10T07:49:34;7.75;;;5.22;;
42338;SDS011;27993;45.392;10.918;2022-10-10T07:52:07;21.23;;;5.90;;
42338;SDS011;27993;45.392;10.918;2022-10-10T07:54:38;11.40;;;4.65;;
42338;SDS011;27993;45.392;10.918;2022-10-10T07:57:08;18.92;;;5.70;;
42338;SDS011;27993;45.392;10.918;2022-10-10T07:59:39;13.82;;;4.65;;
42338;SDS011;27993;45.392;10.918;2022-10-10T08:02:09;19.98;;;5.45;;
42338;SDS011;27993;45.392;10.918;2022-10-10T08:04:40;20.70;;;4.97;;
42338;SDS011;27993;45.392;10.918;2022-10-10T08:07:14;13.80;;;4.65;;
42338;SDS011;27993;45.392;10.918;2022-10-10T08:09:44;11.02;;;5.03;;
42338;SDS011;27993;45.392;10.918;2022-10-10T08:12:15;10.10;;;3.80;;
42338;SDS011;27993;45.392;10.918;2022-10-10T08:14:46;11.75;;;4.15;;
42338;SDS011;27993;45.392;10.918;2022-10-10T08:17:16;8.55;;;4.00;;
42338;SDS011;27993;45.392;10.918;2022-10-10T08:19:47;12.70;;;4.37;;
42338;SDS011;27993;45.392;10.918;2022-10-10T08:22:18;15.40;;;4.50;;
42338;SDS011;27993;45.392;10.918;2022-10-10T08:24:48;7.30;;;4.03;;
42338;SDS011;27993;45.392;10.918;2022-10-10T08:27:19;16.58;;;4.75;;
42338;SDS011;27993;45.392;10.918;2022-10-10T08:29:49;10.20;;;4.30;;
42338;SDS011;27993;45.392;10.918;2022-10-10T08:32:20;6.60;;;4.45;;
42338;SDS011;27993;45.392;10.918;2022-10-10T08:34:51;15.68;;;4.68;;
42338;SDS011;27993;45.392;10.918;2022-10-10T08:37:22;9.25;;;4.15;;
42338;SDS011;27993;45.392;10.918;2022-10-10T08:39:52;9.35;;;4.43;;
42338;SDS011;27993;45.392;10.918;2022-10-10T08:42:29;10.40;;;4.97;;
42338;SDS011;27993;45.392;10.918;2022-10-10T08:45:13;20.37;;;5.28;;
42338;SDS011;27993;45.392;10.918;2022-10-10T08:47:57;11.82;;;4.40;;
42338;SDS011;27993;45.392;10.918;2022-10-10T08:50:32;8.38;;;4.70;;
42338;SDS011;27993;45.392;10.918;2022-10-10T08:53:16;15.90;;;4.53;;
42338;SDS011;27993;45.392;10.918;2022-10-10T08:55:53;20.58;;;5.28;;
42338;SDS011;27993;45.392;10.918;2022-10-10T09:01:12;15.98;;;5.18;;
42338;SDS011;27993;45.392;10.918;2022-10-10T09:06:42;17.08;;;6.32;;
42338;SDS011;27993;45.392;10.918;2022-10-10T09:09:32;15.50;;;5.03;;
42338;SDS011;27993;45.392;10.918;2022-10-10T09:15:16;8.32;;;4.75;;
42338;SDS011;27993;45.392;10.918;2022-10-10T09:17:57;28.85;;;5.62;;
42338;SDS011;27993;45.392;10.918;2022-10-10T09:26:20;14.27;;;4.90;;
42338;SDS011;27993;45.392;10.918;2022-10-10T09:28:57;15.18;;;4.68;;
42338;SDS011;27993;45.392;10.918;2022-10-10T09:31:47;14.40;;;4.65;;
42338;SDS011;27993;45.392;10.918;2022-10-10T09:34:42;12.77;;;4.95;;
42338;SDS011;27993;45.392;10.918;2022-10-10T09:37:19;7.22;;;5.00;;
42338;SDS011;27993;45.392;10.918;2022-10-10T09:42:37;12.98;;;4.93;;
42338;SDS011;27993;45.392;10.918;2022-10-10T09:45:17;13.77;;;5.30;;
42338;SDS011;27993;45.392;10.918;2022-10-10T09:47:52;8.35;;;4.62;;
42338;SDS011;27993;45.392;10.918;2022-10-10T09:50:24;15.25;;;4.62;;
42338;SDS011;27993;45.392;10.918;2022-10-10T09:55:27;8.75;;;4.80;;
42338;SDS011;27993;45.392;10.918;2022-10-10T09:58:19;19.90;;;4.97;;
42338;SDS011;27993;45.392;10.918;2022-10-10T10:01:20;39.78;;;6.00;;
42338;SDS011;27993;45.392;10.918;2022-10-10T10:04:13;10.52;;;4.90;;
42338;SDS011;27993;45.392;10.918;2022-10-10T10:06:49;17.02;;;5.78;;
42338;SDS011;27993;45.392;10.918;2022-10-10T10:09:32;8.95;;;4.87;;
42338;SDS011;27993;45.392;10.918;2022-10-10T10:12:03;28.73;;;5.37;;
42338;SDS011;27993;45.392;10.918;2022-10-10T10:14:35;18.80;;;5.60;;
42338;SDS011;27993;45.392;10.918;2022-10-10T10:17:11;7.87;;;4.47;;
42338;SDS011;27993;45.392;10.918;2022-10-10T10:19:45;14.80;;;5.43;;
42338;SDS011;27993;45.392;10.918;2022-10-10T10:28:12;11.75;;;4.43;;
42338;SDS011;27993;45.392;10.918;2022-10-10T10:30:45;16.83;;;4.53;;
42338;SDS011;27993;45.392;10.918;2022-10-10T10:33:23;13.75;;;4.57;;
42338;SDS011;27993;45.392;10.918;2022-10-10T10:53:14;8.68;;;4.65;;
42338;SDS011;27993;45.392;10.918;2022-10-10T10:59:10;15.55;;;4.45;;
42338;SDS011;27993;45.392;10.918;2022-10-10T11:01:57;11.85;;;4.78;;
42338;SDS011;27993;45.392;10.918;2022-10-10T11:10:30;13.55;;;4.35;;
42338;SDS011;27993;45.392;10.918;2022-10-10T11:13:13;5.68;;;4.47;;
42338;SDS011;27993;45.392;10.918;2022-10-10T11:18:26;20.23;;;4.70;;
42338;SDS011;27993;45.392;10.918;2022-10-10T11:21:05;10.60;;;5.65;;
42338;SDS011;27993;45.392;10.918;2022-10-10T11:26:36;8.45;;;3.60;;
42338;SDS011;27993;45.392;10.918;2022-10-10T11:29:12;9.73;;;4.20;;
42338;SDS011;27993;45.392;10.918;2022-10-10T11:31:52;8.25;;;3.35;;
42338;SDS011;27993;45.392;10.918;2022-10-10T11:34:29;12.65;;;4.57;;
42338;SDS011;27993;45.392;10.918;2022-10-10T11:37:12;6.20;;;4.40;;
42338;SDS011;27993;45.392;10.918;2022-10-10T11:39:51;4.20;;;3.65;;
42338;SDS011;27993;45.392;10.918;2022-10-10T11:42:36;14.43;;;4.18;;
42338;SDS011;27993;45.392;10.918;2022-10-10T11:45:15;8.55;;;4.15;;
42338;SDS011;27993;45.392;10.918;2022-10-10T11:47:55;13.57;;;4.93;;
42338;SDS011;27993;45.392;10.918;2022-10-10T11:50:39;9.70;;;4.25;;
42338;SDS011;27993;45.392;10.918;2022-10-10T11:53:14;8.90;;;4.03;;
42338;SDS011;27993;45.392;10.918;2022-10-10T11:56:14;5.37;;;3.80;;
42338;SDS011;27993;45.392;10.918;2022-10-10T11:58:53;8.82;;;4.28;;
42338;SDS011;27993;45.392;10.918;2022-10-10T12:01:47;5.68;;;4.15;;
42338;SDS011;27993;45.392;10.918;2022-10-10T12:04:22;13.88;;;4.68;;
42338;SDS011;27993;45.392;10.918;2022-10-10T12:06:58;16.30;;;4.53;;
42338;SDS011;27993;45.392;10.918;2022-10-10T12:09:38;7.00;;;4.55;;
42338;SDS011;27993;45.392;10.918;2022-10-10T12:12:14;13.52;;;4.97;;
42338;SDS011;27993;45.392;10.918;2022-10-10T12:15:04;14.05;;;4.25;;
42338;SDS011;27993;45.392;10.918;2022-10-10T12:17:41;5.37;;;4.07;;
42338;SDS011;27993;45.392;10.918;2022-10-10T12:38:26;8.57;;;4.60;;
42338;SDS011;27993;45.392;10.918;2022-10-10T12:41:13;12.95;;;4.53;;
42338;SDS011;27993;45.392;10.918;2022-10-10T12:43:49;9.60;;;3.87;;
42338;SDS011;27993;45.392;10.918;2022-10-10T12:46:41;6.30;;;4.30;;
42338;SDS011;27993;45.392;10.918;2022-10-10T12:51:57;9.50;;;3.92;;
42338;SDS011;27993;45.392;10.918;2022-10-10T12:54:32;10.13;;;4.35;;
42338;SDS011;27993;45.392;10.918;2022-10-10T12:57:13;10.90;;;4.57;;
42338;SDS011;27993;45.392;10.918;2022-10-10T13:03:10;11.40;;;5.70;;
42338;SDS011;27993;45.392;10.918;2022-10-10T13:05:47;7.05;;;3.78;;
42338;SDS011;27993;45.392;10.918;2022-10-10T13:08:24;9.02;;;4.60;;
42338;SDS011;27993;45.392;10.918;2022-10-10T13:13:49;16.42;;;4.75;;
42338;SDS011;27993;45.392;10.918;2022-10-10T13:16:25;6.10;;;4.12;;
42338;SDS011;27993;45.392;10.918;2022-10-10T13:18:57;6.18;;;4.32;;
42338;SDS011;27993;45.392;10.918;2022-10-10T13:21:29;7.50;;;4.28;;
42338;SDS011;27993;45.392;10.918;2022-10-10T13:24:03;6.97;;;4.12;;
42338;SDS011;27993;45.392;10.918;2022-10-10T13:26:42;6.55;;;4.03;;
42338;SDS011;27993;45.392;10.918;2022-10-10T13:32:14;9.15;;;4.60;;
42338;SDS011;27993;45.392;10.918;2022-10-10T13:34:56;15.82;;;4.30;;
42338;SDS011;27993;45.392;10.918;2022-10-10T13:37:30;11.98;;;4.03;;
42338;SDS011;27993;45.392;10.918;2022-10-10T13:42:33;21.55;;;4.65;;
42338;SDS011;27993;45.392;10.918;2022-10-10T13:58:50;8.23;;;4.25;;
42338;SDS011;27993;45.392;10.918;2022-10-10T14:04:04;11.43;;;5.57;;
42338;SDS011;27993;45.392;10.918;2022-10-10T14:06:36;9.85;;;4.68;;
42338;SDS011;27993;45.392;10.918;2022-10-10T14:12:13;6.28;;;3.67;;
42338;SDS011;27993;45.392;10.918;2022-10-10T14:14:48;6.87;;;3.72;;
42338;SDS011;27993;45.392;10.918;2022-10-10T14:17:20;5.95;;;4.45;;
42338;SDS011;27993;45.392;10.918;2022-10-10T14:22:22;7.55;;;4.12;;
42338;SDS011;27993;45.392;10.918;2022-10-10T14:29:55;9.90;;;3.87;;
42338;SDS011;27993;45.392;10.918;2022-10-10T14:32:27;7.07;;;4.10;;
42338;SDS011;27993;45.392;10.918;2022-10-10T14:34:59;8.65;;;4.57;;
42338;SDS011;27993;45.392;10.918;2022-10-10T14:40:00;6.65;;;4.40;;
42338;SDS011;27993;45.392;10.918;2022-10-10T14:45:02;10.43;;;5.37;;
42338;SDS011;27993;45.392;10.918;2022-10-10T14:50:09;7.20;;;5.00;;
42338;SDS011;27993;45.392;10.918;2022-10-10T14:52:51;7.95;;;4.50;;
42338;SDS011;27993;45.392;10.918;2022-10-10T14:57:52;11.00;;;4.23;;
42338;SDS011;27993;45.392;10.918;2022-10-10T15:02:54;11.12;;;5.18;;
42338;SDS011;27993;45.392;10.918;2022-10-10T15:07:55;9.13;;;4.33;;
42338;SDS011;27993;45.392;10.918;2022-10-10T15:10:26;20.17;;;5.93;;
42338;SDS011;27993;45.392;10.918;2022-10-10T15:15:27;8.10;;;4.57;;
42338;SDS011;27993;45.392;10.918;2022-10-10T15:20:29;9.18;;;5.15;;
42338;SDS011;27993;45.392;10.918;2022-10-10T15:25:31;14.07;;;5.25;;
42338;SDS011;27993;45.392;10.918;2022-10-10T15:28:03;7.78;;;4.57;;
42338;SDS011;27993;45.392;10.918;2022-10-10T15:30:33;13.93;;;5.37;;
42338;SDS011;27993;45.392;10.918;2022-10-10T15:35:35;7.67;;;4.47;;
42338;SDS011;27993;45.392;10.918;2022-10-10T15:38:05;7.93;;;5.07;;
42338;SDS011;27993;45.392;10.918;2022-10-10T15:40:36;8.07;;;5.28;;
42338;SDS011;27993;45.392;10.918;2022-10-10T15:45:38;10.97;;;4.63;;
42338;SDS011;27993;45.392;10.918;2022-10-10T15:48:12;8.40;;;4.03;;
42338;SDS011;27993;45.392;10.918;2022-10-10T15:50:43;10.55;;;4.37;;
42338;SDS011;27993;45.392;10.918;2022-10-10T15:53:14;11.63;;;5.15;;
42338;SDS011;27993;45.392;10.918;2022-10-10T15:58:15;10.20;;;4.75;;
42338;SDS011;27993;45.392;10.918;2022-10-10T16:00:46;7.35;;;4.78;;
42338;SDS011;27993;45.392;10.918;2022-10-10T16:03:17;7.47;;;4.15;;
42338;SDS011;27993;45.392;10.918;2022-10-10T16:05:47;11.55;;;4.78;;
42338;SDS011;27993;45.392;10.918;2022-10-10T16:08:18;10.95;;;4.07;;
42338;SDS011;27993;45.392;10.918;2022-10-10T16:10:48;12.15;;;5.22;;
42338;SDS011;27993;45.392;10.918;2022-10-10T16:13:19;7.80;;;4.22;;
42338;SDS011;27993;45.392;10.918;2022-10-10T16:15:56;7.80;;;4.53;;
42338;SDS011;27993;45.392;10.918;2022-10-10T16:18:32;6.90;;;4.53;;
42338;SDS011;27993;45.392;10.918;2022-10-10T16:21:04;21.37;;;5.55;;
42338;SDS011;27993;45.392;10.918;2022-10-10T16:23:36;7.65;;;4.65;;
42338;SDS011;27993;45.392;10.918;2022-10-10T16:26:14;14.20;;;5.07;;
42338;SDS011;27993;45.392;10.918;2022-10-10T16:28:46;11.70;;;4.82;;
42338;SDS011;27993;45.392;10.918;2022-10-10T16:31:18;9.57;;;5.43;;
42338;SDS011;27993;45.392;10.918;2022-10-10T16:33:49;9.68;;;4.50;;
42338;SDS011;27993;45.392;10.918;2022-10-10T16:36:21;11.73;;;5.10;;
42338;SDS011;27993;45.392;10.918;2022-10-10T16:38:59;9.32;;;4.87;;
42338;SDS011;27993;45.392;10.918;2022-10-10T16:41:30;10.77;;;5.22;;
42338;SDS011;27993;45.392;10.918;2022-10-10T16:44:01;10.07;;;4.85;;
42338;SDS011;27993;45.392;10.918;2022-10-10T16:46:32;14.18;;;6.15;;
42338;SDS011;27993;45.392;10.918;2022-10-10T16:49:03;19.33;;;6.18;;
42338;SDS011;27993;45.392;10.918;2022-10-10T16:51:33;24.02;;;5.75;;
42338;SDS011;27993;45.392;10.918;2022-10-10T16:54:04;11.75;;;4.72;;
42338;SDS011;27993;45.392;10.918;2022-10-10T16:56:35;11.65;;;4.53;;
42338;SDS011;27993;45.392;10.918;2022-10-10T16:59:06;22.60;;;6.20;;
42338;SDS011;27993;45.392;10.918;2022-10-10T17:04:07;16.03;;;5.27;;
42338;SDS011;27993;45.392;10.918;2022-10-10T17:06:38;17.23;;;6.18;;
42338;SDS011;27993;45.392;10.918;2022-10-10T17:09:08;12.80;;;5.82;;
42338;SDS011;27993;45.392;10.918;2022-10-10T17:11:40;11.60;;;5.37;;
42338;SDS011;27993;45.392;10.918;2022-10-10T17:14:11;12.90;;;6.40;;
42338;SDS011;27993;45.392;10.918;2022-10-10T17:16:41;15.25;;;6.35;;
42338;SDS011;27993;45.392;10.918;2022-10-10T17:19:12;16.40;;;7.03;;
42338;SDS011;27993;45.392;10.918;2022-10-10T17:21:43;14.30;;;6.62;;
42338;SDS011;27993;45.392;10.918;2022-10-10T17:24:14;11.18;;;6.62;;
42338;SDS011;27993;45.392;10.918;2022-10-10T17:26:45;10.60;;;6.68;;
42338;SDS011;27993;45.392;10.918;2022-10-10T17:29:16;14.98;;;6.75;;
42338;SDS011;27993;45.392;10.918;2022-10-10T17:31:47;12.95;;;7.07;;
42338;SDS011;27993;45.392;10.918;2022-10-10T17:34:17;16.85;;;7.68;;
42338;SDS011;27993;45.392;10.918;2022-10-10T17:36:48;16.83;;;7.85;;
42338;SDS011;27993;45.392;10.918;2022-10-10T17:39:18;18.50;;;8.18;;
42338;SDS011;27993;45.392;10.918;2022-10-10T17:41:49;25.92;;;9.10;;
42338;SDS011;27993;45.392;10.918;2022-10-10T17:46:52;20.45;;;7.50;;
42338;SDS011;27993;45.392;10.918;2022-10-10T17:49:23;22.73;;;8.85;;
42338;SDS011;27993;45.392;10.918;2022-10-10T17:51:53;21.87;;;7.85;;
42338;SDS011;27993;45.392;10.918;2022-10-10T17:54:24;19.08;;;8.20;;
42338;SDS011;27993;45.392;10.918;2022-10-10T17:56:54;15.00;;;7.80;;
42338;SDS011;27993;45.392;10.918;2022-10-10T17:59:25;29.30;;;7.72;;
42338;SDS011;27993;45.392;10.918;2022-10-10T18:01:56;19.40;;;8.18;;
42338;SDS011;27993;45.392;10.918;2022-10-10T18:04:26;22.73;;;8.20;;
42338;SDS011;27993;45.392;10.918;2022-10-10T18:06:57;21.20;;;7.22;;
42338;SDS011;27993;45.392;10.918;2022-10-10T18:09:27;23.00;;;6.68;;
42338;SDS011;27993;45.392;10.918;2022-10-10T18:11:58;16.27;;;7.93;;
42338;SDS011;27993;45.392;10.918;2022-10-10T18:14:29;17.27;;;7.45;;
42338;SDS011;27993;45.392;10.918;2022-10-10T18:17:00;22.73;;;7.43;;